Timewell, Illinois
Current Conditions -  °F | °C
As of 7:54 AM on Friday 24 Oct 2014 (Local Time) from KUIN Reporting Station
Moderate Fog Moderate Fog  
Wind Chill: 54°   Ceiling: 200
Heat Index: 54°   Visibility: 0mi
Dew Point: 54°   Wind: 6mph
Humidity: 100%   Direction: 230°SW
Pressure: 30.08"   Gusts: NA
Location:  40.01°N, 90.87°W
Report Text: KUIN 241254Z AUTO 23005KT M1/4SM FG VV002 12/12 A3008 RMK AO2 SLP185 T01220122
Loading
Personal Weather Stations






























Interactive Weather Map
Tropical Storm Tracking
New forecast layout! Learn more

10-Day Weather Forecast

Advertisements
Track Severe Weather on mobile